IBB482 GCXO-GCRR
Flight info
| Callsign | IBB482 |
|---|---|
| Flight time | N/A |
| Altitude | 13000 |
| Route | LARYS |
| Aircraft | AT75/M-SDE2E3FGHIRWXY/LB1 |
Departure
| Time | 2026-05-01 12:54 |
|---|---|
| Airport | Tenerife Norte-Ciudad de La Laguna Airport (GCXO) |
Arrival
| Time | N/A |
|---|---|
| Airport | César Manrique-Lanzarote Airport (GCRR) |
| Time | Latitude | Longitude | Altitude | Speed | Heading |
|---|---|---|---|---|---|
| 2026-05-01 12:45 | 28.48840 | -16.34921 | 2079 ft | 0 kts | 19° |
| 2026-05-01 12:49 | 28.48841 | -16.34921 | 2079 ft | 0 kts | 19° |
| 2026-05-01 12:50 | 28.48844 | -16.34918 | 2079 ft | 1 kts | 48° |
| 2026-05-01 12:50 | 28.48843 | -16.34911 | 2079 ft | 1 kts | 116° |
| 2026-05-01 12:50 | 28.48838 | -16.34907 | 2079 ft | 1 kts | 148° |
| 2026-05-01 12:51 | 28.48823 | -16.34900 | 2079 ft | 4 kts | 167° |
| 2026-05-01 12:51 | 28.48774 | -16.34904 | 2079 ft | 10 kts | 194° |
| 2026-05-01 12:51 | 28.48709 | -16.35014 | 2079 ft | 13 kts | 292° |
| 2026-05-01 12:52 | 28.48748 | -16.35123 | 2079 ft | 16 kts | 290° |
| 2026-05-01 12:52 | 28.48838 | -16.35396 | 2079 ft | 20 kts | 290° |
| 2026-05-01 12:52 | 28.48889 | -16.35543 | 2080 ft | 18 kts | 287° |
| 2026-05-01 12:53 | 28.48799 | -16.35728 | 2079 ft | 13 kts | 159° |
| 2026-05-01 12:53 | 28.48743 | -16.35584 | 2080 ft | 51 kts | 113° |
| 2026-05-01 12:53 | 28.48520 | -16.34922 | 2080 ft | 121 kts | 109° |
| 2026-05-01 12:54 | 28.48219 | -16.33963 | 2516 ft | 132 kts | 109° |
| 2026-05-01 12:54 | 28.47448 | -16.31529 | 3399 ft | 174 kts | 110° |
| 2026-05-01 12:54 | 28.47033 | -16.30238 | 3829 ft | 173 kts | 110° |
| 2026-05-01 12:55 | 28.46186 | -16.27559 | 4443 ft | 185 kts | 109° |
| 2026-05-01 12:55 | 28.45768 | -16.26174 | 4864 ft | 185 kts | 109° |
| 2026-05-01 12:55 | 28.45340 | -16.24785 | 5281 ft | 186 kts | 110° |
| 2026-05-01 12:56 | 28.44911 | -16.23390 | 5691 ft | 187 kts | 110° |
| 2026-05-01 12:56 | 28.44487 | -16.21992 | 6092 ft | 188 kts | 110° |
| 2026-05-01 12:56 | 28.44059 | -16.20585 | 6499 ft | 189 kts | 111° |
| 2026-05-01 12:56 | 28.43627 | -16.19165 | 6915 ft | 190 kts | 111° |
| 2026-05-01 12:57 | 28.43192 | -16.17745 | 7329 ft | 191 kts | 112° |
| 2026-05-01 12:57 | 28.42313 | -16.14873 | 8125 ft | 195 kts | 112° |
| 2026-05-01 12:57 | 28.41861 | -16.13418 | 8519 ft | 196 kts | 113° |
| 2026-05-01 12:58 | 28.41404 | -16.11943 | 8903 ft | 198 kts | 113° |
| 2026-05-01 12:58 | 28.40947 | -16.10453 | 9278 ft | 200 kts | 113° |
| 2026-05-01 12:58 | 28.40486 | -16.08954 | 9638 ft | 203 kts | 114° |
| 2026-05-01 12:59 | 28.40530 | -16.05785 | 10337 ft | 214 kts | 65° |
| 2026-05-01 12:59 | 28.41374 | -16.04364 | 10642 ft | 219 kts | 54° |
| 2026-05-01 12:59 | 28.42820 | -16.01303 | 11332 ft | 221 kts | 67° |
| 2026-05-01 13:00 | 28.43852 | -15.98637 | 11894 ft | 223 kts | 69° |
| 2026-05-01 13:00 | 28.44460 | -15.97015 | 12222 ft | 225 kts | 69° |
| 2026-05-01 13:01 | 28.45899 | -15.93160 | 12866 ft | 235 kts | 69° |
| 2026-05-01 13:01 | 28.46552 | -15.91403 | 12971 ft | 246 kts | 69° |
| 2026-05-01 13:01 | 28.47969 | -15.87661 | 13002 ft | 268 kts | 68° |
| 2026-05-01 13:02 | 28.48470 | -15.86353 | 13002 ft | 273 kts | 68° |
| 2026-05-01 13:07 | 28.65294 | -15.42221 | 12996 ft | 293 kts | 68° |
| 2026-05-01 13:07 | 28.66106 | -15.40082 | 12996 ft | 294 kts | 68° |
| 2026-05-01 13:07 | 28.66916 | -15.37949 | 12996 ft | 295 kts | 68° |
| 2026-05-01 13:08 | 28.67728 | -15.35806 | 12996 ft | 295 kts | 68° |
| 2026-05-01 13:08 | 28.68544 | -15.33653 | 12996 ft | 298 kts | 69° |
| 2026-05-01 13:08 | 28.69370 | -15.31476 | 12997 ft | 301 kts | 69° |
| 2026-05-01 13:08 | 28.70204 | -15.29280 | 12997 ft | 303 kts | 69° |
| 2026-05-01 13:09 | 28.71039 | -15.27077 | 12996 ft | 304 kts | 69° |